sensor_id;sensor_type;location;lat;lon;timestamp;pressure;altitude;pressure_sealevel;temperature;humidity
19795;BME280;10057;59.402;17.866;2023-04-02T00:00:35;101933.94;;;-1.39;57.23
19795;BME280;10057;59.402;17.866;2023-04-02T00:03:04;101932.09;;;-1.42;57.15
19795;BME280;10057;59.402;17.866;2023-04-02T00:05:41;101932.00;;;-1.45;57.05
19795;BME280;10057;59.402;17.866;2023-04-02T00:10:53;101943.09;;;-1.51;57.11
19795;BME280;10057;59.402;17.866;2023-04-02T00:13:44;101942.97;;;-1.55;57.65
19795;BME280;10057;59.402;17.866;2023-04-02T00:16:22;101950.88;;;-1.52;57.45
19795;BME280;10057;59.402;17.866;2023-04-02T00:18:53;101947.41;;;-1.53;57.56
19795;BME280;10057;59.402;17.866;2023-04-02T00:21:25;101954.34;;;-1.53;57.60
19795;BME280;10057;59.402;17.866;2023-04-02T00:23:54;101959.44;;;-1.56;57.47
19795;BME280;10057;59.402;17.866;2023-04-02T00:26:30;101956.88;;;-1.55;57.28
19795;BME280;10057;59.402;17.866;2023-04-02T00:29:03;101972.47;;;-1.55;57.74
19795;BME280;10057;59.402;17.866;2023-04-02T00:31:31;101967.19;;;-1.58;57.73
19795;BME280;10057;59.402;17.866;2023-04-02T00:34:02;101974.06;;;-1.60;57.63
19795;BME280;10057;59.402;17.866;2023-04-02T00:36:32;101970.41;;;-1.65;57.40
19795;BME280;10057;59.402;17.866;2023-04-02T00:39:02;101974.66;;;-1.69;57.51
19795;BME280;10057;59.402;17.866;2023-04-02T00:41:30;101986.69;;;-1.72;57.65
19795;BME280;10057;59.402;17.866;2023-04-02T00:44:01;101985.78;;;-1.73;57.82
19795;BME280;10057;59.402;17.866;2023-04-02T00:46:31;101987.53;;;-1.73;57.68
19795;BME280;10057;59.402;17.866;2023-04-02T00:49:05;101987.53;;;-1.73;57.71
19795;BME280;10057;59.402;17.866;2023-04-02T00:51:37;101997.81;;;-1.76;57.77
19795;BME280;10057;59.402;17.866;2023-04-02T00:54:09;102004.50;;;-1.84;57.74
19795;BME280;10057;59.402;17.866;2023-04-02T00:56:44;102008.72;;;-1.88;58.21
19795;BME280;10057;59.402;17.866;2023-04-02T01:01:59;102013.00;;;-1.88;57.94
19795;BME280;10057;59.402;17.866;2023-04-02T01:04:34;102020.00;;;-1.87;58.45
19795;BME280;10057;59.402;17.866;2023-04-02T01:07:05;102024.38;;;-1.86;58.12
19795;BME280;10057;59.402;17.866;2023-04-02T01:15:03;102037.16;;;-1.93;58.03
19795;BME280;10057;59.402;17.866;2023-04-02T01:24:01;102041.53;;;-1.92;58.22
19795;BME280;10057;59.402;17.866;2023-04-02T01:26:52;102047.56;;;-1.93;58.59
19795;BME280;10057;59.402;17.866;2023-04-02T01:29:45;102053.50;;;-1.97;58.36
19795;BME280;10057;59.402;17.866;2023-04-02T01:32:16;102051.66;;;-1.99;58.36
19795;BME280;10057;59.402;17.866;2023-04-02T01:34:46;102063.69;;;-2.03;58.58
19795;BME280;10057;59.402;17.866;2023-04-02T01:43:02;102070.63;;;-2.02;58.51
19795;BME280;10057;59.402;17.866;2023-04-02T01:45:33;102066.28;;;-2.03;58.62
19795;BME280;10057;59.402;17.866;2023-04-02T01:48:08;102074.03;;;-2.04;58.46
19795;BME280;10057;59.402;17.866;2023-04-02T01:50:39;102079.19;;;-2.06;58.41
19795;BME280;10057;59.402;17.866;2023-04-02T01:53:14;102079.13;;;-2.07;58.52
19795;BME280;10057;59.402;17.866;2023-04-02T01:55:46;102089.56;;;-2.06;58.70
19795;BME280;10057;59.402;17.866;2023-04-02T01:58:18;102093.84;;;-2.08;58.79
19795;BME280;10057;59.402;17.866;2023-04-02T02:00:50;102092.91;;;-2.10;58.84
19795;BME280;10057;59.402;17.866;2023-04-02T02:03:19;102092.78;;;-2.13;59.19
19795;BME280;10057;59.402;17.866;2023-04-02T02:05:47;102097.94;;;-2.15;59.04
19795;BME280;10057;59.402;17.866;2023-04-02T02:08:38;102096.16;;;-2.16;59.29
19795;BME280;10057;59.402;17.866;2023-04-02T02:11:07;102106.63;;;-2.14;59.35
19795;BME280;10057;59.402;17.866;2023-04-02T02:13:34;102104.03;;;-2.14;59.13
19795;BME280;10057;59.402;17.866;2023-04-02T02:16:03;102106.63;;;-2.14;58.87
19795;BME280;10057;59.402;17.866;2023-04-02T02:18:30;102109.97;;;-2.18;59.11
19795;BME280;10057;59.402;17.866;2023-04-02T02:20:58;102120.34;;;-2.18;59.37
19795;BME280;10057;59.402;17.866;2023-04-02T02:23:27;102115.94;;;-2.21;59.17
19795;BME280;10057;59.402;17.866;2023-04-02T02:25:55;102123.72;;;-2.21;58.90
19795;BME280;10057;59.402;17.866;2023-04-02T02:28:25;102124.59;;;-2.20;59.13
19795;BME280;10057;59.402;17.866;2023-04-02T02:30:57;102129.75;;;-2.22;59.28
19795;BME280;10057;59.402;17.866;2023-04-02T02:33:40;102124.38;;;-2.26;59.46
19795;BME280;10057;59.402;17.866;2023-04-02T02:39:06;102139.09;;;-2.27;59.39
19795;BME280;10057;59.402;17.866;2023-04-02T02:44:38;102150.22;;;-2.31;59.60
19795;BME280;10057;59.402;17.866;2023-04-02T02:47:13;102149.25;;;-2.33;59.69
19795;BME280;10057;59.402;17.866;2023-04-02T02:49:46;102150.81;;;-2.38;59.76
19795;BME280;10057;59.402;17.866;2023-04-02T02:52:18;102162.22;;;-2.34;60.01
19795;BME280;10057;59.402;17.866;2023-04-02T02:54:48;102160.50;;;-2.34;59.56
19795;BME280;10057;59.402;17.866;2023-04-02T02:57:22;102169.16;;;-2.33;59.47
19795;BME280;10057;59.402;17.866;2023-04-02T02:59:54;102168.28;;;-2.34;59.66
19795;BME280;10057;59.402;17.866;2023-04-02T03:02:24;102166.56;;;-2.33;59.62
19795;BME280;10057;59.402;17.866;2023-04-02T03:04:53;102174.38;;;-2.33;59.32
19795;BME280;10057;59.402;17.866;2023-04-02T03:07:24;102180.41;;;-2.34;59.81
19795;BME280;10057;59.402;17.866;2023-04-02T03:10:09;102183.00;;;-2.34;60.08
19795;BME280;10057;59.402;17.866;2023-04-02T03:13:01;102178.69;;;-2.34;60.17
19795;BME280;10057;59.402;17.866;2023-04-02T03:15:39;102190.63;;;-2.39;59.99
19795;BME280;10057;59.402;17.866;2023-04-02T03:18:15;102194.13;;;-2.39;59.60
19795;BME280;10057;59.402;17.866;2023-04-02T03:21:05;102194.00;;;-2.42;59.80
19795;BME280;10057;59.402;17.866;2023-04-02T03:23:46;102207.84;;;-2.43;60.06
19795;BME280;10057;59.402;17.866;2023-04-02T03:26:29;102212.94;;;-2.44;60.05
19795;BME280;10057;59.402;17.866;2023-04-02T03:31:55;102217.91;;;-2.50;60.00
19795;BME280;10057;59.402;17.866;2023-04-02T03:37:39;102225.66;;;-2.52;59.87
19795;BME280;10057;59.402;17.866;2023-04-02T03:40:17;102233.50;;;-2.50;59.32
19795;BME280;10057;59.402;17.866;2023-04-02T03:42:54;102241.25;;;-2.52;59.88
19795;BME280;10057;59.402;17.866;2023-04-02T03:45:31;102241.13;;;-2.55;59.85
19795;BME280;10057;59.402;17.866;2023-04-02T03:48:06;102242.84;;;-2.55;60.02
19795;BME280;10057;59.402;17.866;2023-04-02T03:50:56;102251.44;;;-2.56;59.76
19795;BME280;10057;59.402;17.866;2023-04-02T03:53:25;102255.72;;;-2.58;59.82
19795;BME280;10057;59.402;17.866;2023-04-02T03:55:53;102260.78;;;-2.62;60.03
19795;BME280;10057;59.402;17.866;2023-04-02T03:58:38;102266.03;;;-2.60;60.19
19795;BME280;10057;59.402;17.866;2023-04-02T04:01:23;102261.53;;;-2.64;60.27
19795;BME280;10057;59.402;17.866;2023-04-02T04:04:00;102273.50;;;-2.68;59.90
19795;BME280;10057;59.402;17.866;2023-04-02T04:06:31;102274.22;;;-2.72;60.23
19795;BME280;10057;59.402;17.866;2023-04-02T04:09:08;102274.09;;;-2.75;60.22
19795;BME280;10057;59.402;17.866;2023-04-02T04:11:42;102280.81;;;-2.80;59.89
19795;BME280;10057;59.402;17.866;2023-04-02T04:14:20;102283.28;;;-2.83;60.14
19795;BME280;10057;59.402;17.866;2023-04-02T04:20:16;102285.00;;;-2.83;60.57
19795;BME280;10057;59.402;17.866;2023-04-02T04:22:50;102296.44;;;-2.78;59.46
19795;BME280;10057;59.402;17.866;2023-04-02T04:25:25;102300.06;;;-2.75;60.47
19795;BME280;10057;59.402;17.866;2023-04-02T04:28:14;102303.56;;;-2.74;60.41
19795;BME280;10057;59.402;17.866;2023-04-02T04:30:50;102309.56;;;-2.75;60.21
19795;BME280;10057;59.402;17.866;2023-04-02T04:33:31;102309.56;;;-2.75;59.70
19795;BME280;10057;59.402;17.866;2023-04-02T04:36:20;102314.66;;;-2.78;60.30
19795;BME280;10057;59.402;17.866;2023-04-02T04:38:56;102316.28;;;-2.80;59.79
19795;BME280;10057;59.402;17.866;2023-04-02T04:41:31;102317.94;;;-2.82;59.91
19795;BME280;10057;59.402;17.866;2023-04-02T04:44:05;102321.47;;;-2.80;59.77
19795;BME280;10057;59.402;17.866;2023-04-02T04:49:24;102326.75;;;-2.79;60.09
19795;BME280;10057;59.402;17.866;2023-04-02T04:52:19;102330.09;;;-2.81;59.60
19795;BME280;10057;59.402;17.866;2023-04-02T04:54:47;102339.59;;;-2.82;59.86
19795;BME280;10057;59.402;17.866;2023-04-02T04:57:33;102342.16;;;-2.83;60.16
19795;BME280;10057;59.402;17.866;2023-04-02T05:00:14;102347.34;;;-2.83;60.20
19795;BME280;10057;59.402;17.866;2023-04-02T05:05:37;102356.06;;;-2.81;60.51
19795;BME280;10057;59.402;17.866;2023-04-02T05:08:10;102354.34;;;-2.81;60.27
19795;BME280;10057;59.402;17.866;2023-04-02T05:10:49;102354.31;;;-2.82;60.01
19795;BME280;10057;59.402;17.866;2023-04-02T05:13:23;102361.28;;;-2.81;60.21
19795;BME280;10057;59.402;17.866;2023-04-02T05:16:06;102359.41;;;-2.84;60.04
19795;BME280;10057;59.402;17.866;2023-04-02T05:18:40;102367.50;;;-2.78;60.13
19795;BME280;10057;59.402;17.866;2023-04-02T05:26:39;102381.16;;;-2.63;60.26
19795;BME280;10057;59.402;17.866;2023-04-02T05:29:18;102377.03;;;-2.57;60.45
19795;BME280;10057;59.402;17.866;2023-04-02T05:34:29;102384.13;;;-2.53;60.28
19795;BME280;10057;59.402;17.866;2023-04-02T05:36:57;102387.72;;;-2.50;59.86
19795;BME280;10057;59.402;17.866;2023-04-02T05:39:25;102394.88;;;-2.46;60.10
19795;BME280;10057;59.402;17.866;2023-04-02T05:44:30;102394.34;;;-2.37;60.51
19795;BME280;10057;59.402;17.866;2023-04-02T05:47:05;102398.84;;;-2.33;60.14
19795;BME280;10057;59.402;17.866;2023-04-02T05:49:42;102403.47;;;-2.26;59.88
19795;BME280;10057;59.402;17.866;2023-04-02T05:52:14;102409.72;;;-2.22;60.40
19795;BME280;10057;59.402;17.866;2023-04-02T05:54:55;102406.41;;;-2.18;59.83
19795;BME280;10057;59.402;17.866;2023-04-02T05:57:31;102403.94;;;-2.15;60.13
19795;BME280;10057;59.402;17.866;2023-04-02T06:00:17;102408.50;;;-2.09;59.83
19795;BME280;10057;59.402;17.866;2023-04-02T06:02:53;102414.78;;;-2.04;60.04
19795;BME280;10057;59.402;17.866;2023-04-02T06:05:31;102415.84;;;-1.99;60.08
19795;BME280;10057;59.402;17.866;2023-04-02T06:08:13;102420.28;;;-1.97;59.99
19795;BME280;10057;59.402;17.866;2023-04-02T06:10:49;102420.53;;;-1.91;60.04
19795;BME280;10057;59.402;17.866;2023-04-02T06:13:20;102432.84;;;-1.86;59.74
19795;BME280;10057;59.402;17.866;2023-04-02T06:15:47;102432.97;;;-1.83;60.13
19795;BME280;10057;59.402;17.866;2023-04-02T06:18:25;102436.75;;;-1.75;59.60
19795;BME280;10057;59.402;17.866;2023-04-02T06:20:54;102436.13;;;-1.70;59.49
19795;BME280;10057;59.402;17.866;2023-04-02T06:23:34;102437.25;;;-1.63;59.74
19795;BME280;10057;59.402;17.866;2023-04-02T06:26:17;102438.41;;;-1.56;59.52
19795;BME280;10057;59.402;17.866;2023-04-02T06:29:03;102444.72;;;-1.50;59.86
19795;BME280;10057;59.402;17.866;2023-04-02T06:34:07;102448.75;;;-1.35;59.17
19795;BME280;10057;59.402;17.866;2023-04-02T06:36:39;102452.41;;;-1.30;59.56
19795;BME280;10057;59.402;17.866;2023-04-02T06:39:09;102454.41;;;-1.23;59.26
19795;BME280;10057;59.402;17.866;2023-04-02T06:41:36;102465.19;;;-1.14;59.45
19795;BME280;10057;59.402;17.866;2023-04-02T06:44:08;102470.75;;;-1.05;59.33
19795;BME280;10057;59.402;17.866;2023-04-02T06:46:48;102464.13;;;-0.97;59.39
19795;BME280;10057;59.402;17.866;2023-04-02T06:49:41;102469.78;;;-0.84;59.39
19795;BME280;10057;59.402;17.866;2023-04-02T06:52:28;102470.16;;;-0.75;59.27
19795;BME280;10057;59.402;17.866;2023-04-02T06:55:05;102468.69;;;-0.67;59.27
19795;BME280;10057;59.402;17.866;2023-04-02T06:57:33;102475.00;;;-0.60;59.32
19795;BME280;10057;59.402;17.866;2023-04-02T07:00:01;102475.28;;;-0.53;59.34
19795;BME280;10057;59.402;17.866;2023-04-02T07:02:32;102473.84;;;-0.44;59.17
19795;BME280;10057;59.402;17.866;2023-04-02T07:05:04;102480.25;;;-0.35;59.13
19795;BME280;10057;59.402;17.866;2023-04-02T07:07:34;102489.19;;;-0.28;59.50
19795;BME280;10057;59.402;17.866;2023-04-02T07:10:01;102482.47;;;-0.21;59.33
19795;BME280;10057;59.402;17.866;2023-04-02T07:12:28;102492.34;;;-0.13;59.22
19795;BME280;10057;59.402;17.866;2023-04-02T07:14:54;102485.53;;;-0.08;59.16
19795;BME280;10057;59.402;17.866;2023-04-02T07:17:21;102487.53;;;-0.01;59.37
19795;BME280;10057;59.402;17.866;2023-04-02T07:19:48;102488.69;;;0.08;59.33
19795;BME280;10057;59.402;17.866;2023-04-02T07:22:18;102491.53;;;0.15;59.65
19795;BME280;10057;59.402;17.866;2023-04-02T07:24:45;102494.50;;;0.26;59.57
19795;BME280;10057;59.402;17.866;2023-04-02T07:27:13;102500.97;;;0.37;59.52
19795;BME280;10057;59.402;17.866;2023-04-02T07:29:40;102507.34;;;0.45;59.19
19795;BME280;10057;59.402;17.866;2023-04-02T07:32:11;102502.38;;;0.55;59.60
19795;BME280;10057;59.402;17.866;2023-04-02T07:34:39;102499.16;;;0.62;59.45
19795;BME280;10057;59.402;17.866;2023-04-02T07:37:08;102505.53;;;0.71;59.52
19795;BME280;10057;59.402;17.866;2023-04-02T07:39:35;102502.31;;;0.79;59.19
19795;BME280;10057;59.402;17.866;2023-04-02T07:42:04;102508.66;;;0.88;59.84
19795;BME280;10057;59.402;17.866;2023-04-02T07:44:31;102512.47;;;0.98;59.43
19795;BME280;10057;59.402;17.866;2023-04-02T07:46:58;102516.25;;;1.08;59.51
19795;BME280;10057;59.402;17.866;2023-04-02T07:49:25;102528.75;;;1.18;59.83
19795;BME280;10057;59.402;17.866;2023-04-02T07:51:52;102524.69;;;1.28;59.29
19795;BME280;10057;59.402;17.866;2023-04-02T07:54:19;102520.59;;;1.37;59.62
19795;BME280;10057;59.402;17.866;2023-04-02T07:56:45;102524.41;;;1.49;59.55
19795;BME280;10057;59.402;17.866;2023-04-02T07:59:12;102523.84;;;1.60;59.53
19795;BME280;10057;59.402;17.866;2023-04-02T08:01:39;102538.19;;;1.73;59.44
19795;BME280;10057;59.402;17.866;2023-04-02T08:04:19;102546.47;;;1.88;59.72
19795;BME280;10057;59.402;17.866;2023-04-02T08:06:47;102537.25;;;2.04;60.12
19795;BME280;10057;59.402;17.866;2023-04-02T08:09:15;102544.78;;;2.24;60.24
19795;BME280;10057;59.402;17.866;2023-04-02T08:11:42;102542.66;;;2.44;61.04
19795;BME280;10057;59.402;17.866;2023-04-02T08:14:09;102545.38;;;2.84;62.48
19795;BME280;10057;59.402;17.866;2023-04-02T08:16:52;102544.88;;;3.40;64.34
19795;BME280;10057;59.402;17.866;2023-04-02T08:19:19;102554.47;;;4.31;66.84
19795;BME280;10057;59.402;17.866;2023-04-02T08:21:47;102550.75;;;5.30;67.72
19795;BME280;10057;59.402;17.866;2023-04-02T08:24:17;102553.66;;;6.32;68.81
19795;BME280;10057;59.402;17.866;2023-04-02T08:26:48;102545.53;;;7.24;68.25
19795;BME280;10057;59.402;17.866;2023-04-02T08:29:15;102554.63;;;7.96;67.97
19795;BME280;10057;59.402;17.866;2023-04-02T08:31:42;102560.91;;;8.57;67.40
19795;BME280;10057;59.402;17.866;2023-04-02T08:34:09;102564.38;;;9.11;66.89
19795;BME280;10057;59.402;17.866;2023-04-02T08:36:38;102563.28;;;9.70;65.38
19795;BME280;10057;59.402;17.866;2023-04-02T08:39:06;102563.00;;;10.17;64.72
19795;BME280;10057;59.402;17.866;2023-04-02T08:41:48;102564.41;;;10.69;63.59
19795;BME280;10057;59.402;17.866;2023-04-02T08:44:40;102563.34;;;10.91;61.98
19795;BME280;10057;59.402;17.866;2023-04-02T08:47:12;102571.44;;;11.58;52.11
19795;BME280;10057;59.402;17.866;2023-04-02T08:52:25;102573.97;;;11.69;55.32
19795;BME280;10057;59.402;17.866;2023-04-02T08:54:54;102578.22;;;11.85;55.63
19795;BME280;10057;59.402;17.866;2023-04-02T09:00:15;102584.06;;;12.12;55.00
19795;BME280;10057;59.402;17.866;2023-04-02T09:02:49;102578.50;;;12.28;54.85
19795;BME280;10057;59.402;17.866;2023-04-02T09:05:27;102585.78;;;12.16;54.75
19795;BME280;10057;59.402;17.866;2023-04-02T09:07:57;102590.09;;;12.24;54.94
19795;BME280;10057;59.402;17.866;2023-04-02T09:10:37;102600.56;;;12.33;53.84
19795;BME280;10057;59.402;17.866;2023-04-02T09:13:16;102600.41;;;12.46;54.18
19795;BME280;10057;59.402;17.866;2023-04-02T09:15:46;102601.69;;;12.74;53.40
19795;BME280;10057;59.402;17.866;2023-04-02T09:18:17;102607.84;;;12.79;52.22
19795;BME280;10057;59.402;17.866;2023-04-02T09:20:44;102616.91;;;12.69;51.97
19795;BME280;10057;59.402;17.866;2023-04-02T09:23:19;102622.97;;;12.77;51.83
19795;BME280;10057;59.402;17.866;2023-04-02T09:25:48;102623.66;;;12.89;51.28
19795;BME280;10057;59.402;17.866;2023-04-02T09:28:29;102625.47;;;12.85;50.88
19795;BME280;10057;59.402;17.866;2023-04-02T09:31:17;102626.75;;;12.63;50.05
19795;BME280;10057;59.402;17.866;2023-04-02T09:33:49;102627.16;;;12.38;49.81
19795;BME280;10057;59.402;17.866;2023-04-02T09:36:37;102626.66;;;12.08;49.14
19795;BME280;10057;59.402;17.866;2023-04-02T09:39:22;102636.25;;;11.49;48.94
19795;BME280;10057;59.402;17.866;2023-04-02T09:41:49;102641.06;;;11.09;49.00
19795;BME280;10057;59.402;17.866;2023-04-02T09:44:31;102646.69;;;10.72;48.48
19795;BME280;10057;59.402;17.866;2023-04-02T09:47:04;102634.56;;;10.34;48.30
19795;BME280;10057;59.402;17.866;2023-04-02T09:49:38;102642.69;;;9.99;47.49
19795;BME280;10057;59.402;17.866;2023-04-02T09:52:26;102647.22;;;9.63;47.62
19795;BME280;10057;59.402;17.866;2023-04-02T09:57:45;102636.72;;;9.16;47.15
19795;BME280;10057;59.402;17.866;2023-04-02T10:03:02;102651.78;;;9.06;46.53
19795;BME280;10057;59.402;17.866;2023-04-02T10:05:30;102647.38;;;8.93;46.14
19795;BME280;10057;59.402;17.866;2023-04-02T10:08:19;102642.06;;;8.90;46.34
19795;BME280;10057;59.402;17.866;2023-04-02T10:10:49;102659.72;;;8.75;45.76
19795;BME280;10057;59.402;17.866;2023-04-02T10:16:08;102665.78;;;8.36;45.32
19795;BME280;10057;59.402;17.866;2023-04-02T10:18:40;102675.44;;;8.34;45.42
19795;BME280;10057;59.402;17.866;2023-04-02T10:21:09;102675.47;;;8.28;45.21
19795;BME280;10057;59.402;17.866;2023-04-02T10:23:38;102679.84;;;8.18;45.21
19795;BME280;10057;59.402;17.866;2023-04-02T10:26:28;102689.44;;;7.93;44.84
19795;BME280;10057;59.402;17.866;2023-04-02T10:37:07;102697.69;;;7.11;45.50
19795;BME280;10057;59.402;17.866;2023-04-02T10:39:40;102708.25;;;7.11;45.78
19795;BME280;10057;59.402;17.866;2023-04-02T10:42:21;102716.22;;;7.16;45.44
19795;BME280;10057;59.402;17.866;2023-04-02T10:44:58;102719.81;;;7.25;45.91
19795;BME280;10057;59.402;17.866;2023-04-02T10:53:19;102729.00;;;7.82;45.04
19795;BME280;10057;59.402;17.866;2023-04-02T10:55:58;102737.00;;;7.90;44.95
19795;BME280;10057;59.402;17.866;2023-04-02T10:58:30;102724.69;;;7.98;44.72
19795;BME280;10057;59.402;17.866;2023-04-02T11:01:03;102738.81;;;8.06;44.12
19795;BME280;10057;59.402;17.866;2023-04-02T11:06:13;102746.69;;;7.94;44.10
19795;BME280;10057;59.402;17.866;2023-04-02T11:08:43;102744.03;;;7.91;44.43
19795;BME280;10057;59.402;17.866;2023-04-02T11:11:19;102744.91;;;7.92;44.40
19795;BME280;10057;59.402;17.866;2023-04-02T11:13:55;102745.84;;;8.01;44.42
19795;BME280;10057;59.402;17.866;2023-04-02T11:16:23;102767.97;;;8.14;44.14
19795;BME280;10057;59.402;17.866;2023-04-02T11:21:49;102779.31;;;7.93;43.73
19795;BME280;10057;59.402;17.866;2023-04-02T11:29:50;102792.44;;;7.86;42.88
19795;BME280;10057;59.402;17.866;2023-04-02T11:37:44;102800.38;;;7.84;42.40
19795;BME280;10057;59.402;17.866;2023-04-02T11:42:47;102814.50;;;7.92;42.49
19795;BME280;10057;59.402;17.866;2023-04-02T11:55:32;102839.53;;;7.27;42.85
19795;BME280;10057;59.402;17.866;2023-04-02T11:58:01;102842.88;;;7.09;42.97
19795;BME280;10057;59.402;17.866;2023-04-02T12:11:37;102857.72;;;7.00;43.30
19795;BME280;10057;59.402;17.866;2023-04-02T12:19:49;102853.25;;;6.93;43.99
19795;BME280;10057;59.402;17.866;2023-04-02T12:22:23;102871.78;;;7.00;43.44
19795;BME280;10057;59.402;17.866;2023-04-02T12:24:54;102866.44;;;6.91;43.16
19795;BME280;10057;59.402;17.866;2023-04-02T12:27:25;102874.16;;;6.76;43.02
19795;BME280;10057;59.402;17.866;2023-04-02T12:30:10;102867.84;;;6.64;43.76
19795;BME280;10057;59.402;17.866;2023-04-02T12:32:36;102868.66;;;6.57;43.24
19795;BME280;10057;59.402;17.866;2023-04-02T12:35:04;102863.34;;;6.56;43.14
19795;BME280;10057;59.402;17.866;2023-04-02T12:37:31;102888.03;;;6.61;43.56
19795;BME280;10057;59.402;17.866;2023-04-02T12:40:01;102871.31;;;6.62;42.68
19795;BME280;10057;59.402;17.866;2023-04-02T12:42:34;102874.81;;;6.58;43.05
19795;BME280;10057;59.402;17.866;2023-04-02T12:45:03;102887.09;;;6.57;43.28
19795;BME280;10057;59.402;17.866;2023-04-02T12:47:31;102881.75;;;6.51;42.34
19795;BME280;10057;59.402;17.866;2023-04-02T12:49:59;102888.72;;;6.49;42.78
19795;BME280;10057;59.402;17.866;2023-04-02T12:52:28;102882.66;;;6.56;42.85
19795;BME280;10057;59.402;17.866;2023-04-02T12:59:56;102895.84;;;6.53;42.22
19795;BME280;10057;59.402;17.866;2023-04-02T13:02:26;102887.91;;;6.52;42.49
19795;BME280;10057;59.402;17.866;2023-04-02T13:04:58;102897.75;;;6.63;42.35
19795;BME280;10057;59.402;17.866;2023-04-02T13:07:31;102902.22;;;6.71;42.50
19795;BME280;10057;59.402;17.866;2023-04-02T13:10:03;102901.31;;;6.69;42.23
19795;BME280;10057;59.402;17.866;2023-04-02T13:12:39;102907.47;;;6.69;42.24
19795;BME280;10057;59.402;17.866;2023-04-02T13:15:18;102911.00;;;6.70;42.72
19795;BME280;10057;59.402;17.866;2023-04-02T13:18:02;102912.84;;;6.74;42.61
19795;BME280;10057;59.402;17.866;2023-04-02T13:20:35;102905.78;;;6.74;42.52
19795;BME280;10057;59.402;17.866;2023-04-02T13:26:37;102915.28;;;6.63;42.02
19795;BME280;10057;59.402;17.866;2023-04-02T13:31:43;102922.19;;;6.52;42.37
19795;BME280;10057;59.402;17.866;2023-04-02T13:34:10;102914.22;;;6.47;42.43
19795;BME280;10057;59.402;17.866;2023-04-02T13:36:37;102916.75;;;6.43;42.47
19795;BME280;10057;59.402;17.866;2023-04-02T13:39:04;102921.97;;;6.36;42.52
19795;BME280;10057;59.402;17.866;2023-04-02T13:41:36;102926.28;;;6.30;41.98
19795;BME280;10057;59.402;17.866;2023-04-02T13:44:05;102934.91;;;6.21;42.37
19795;BME280;10057;59.402;17.866;2023-04-02T13:46:33;102930.34;;;6.09;42.14
19795;BME280;10057;59.402;17.866;2023-04-02T13:49:00;102938.97;;;5.99;41.81
19795;BME280;10057;59.402;17.866;2023-04-02T13:51:36;102921.13;;;5.86;42.34
19795;BME280;10057;59.402;17.866;2023-04-02T13:54:08;102927.00;;;5.69;41.73
19795;BME280;10057;59.402;17.866;2023-04-02T13:56:39;102937.34;;;5.60;41.90
19795;BME280;10057;59.402;17.866;2023-04-02T13:59:06;102944.28;;;5.55;42.78
19795;BME280;10057;59.402;17.866;2023-04-02T14:01:33;102944.22;;;5.52;42.21
19795;BME280;10057;59.402;17.866;2023-04-02T14:04:01;102948.47;;;5.44;41.97
19795;BME280;10057;59.402;17.866;2023-04-02T14:06:44;102943.78;;;5.28;42.13
19795;BME280;10057;59.402;17.866;2023-04-02T14:09:36;102954.84;;;5.11;41.94
19795;BME280;10057;59.402;17.866;2023-04-02T14:15:03;102951.94;;;4.99;42.60
19795;BME280;10057;59.402;17.866;2023-04-02T14:20:45;102962.38;;;4.94;42.27
19795;BME280;10057;59.402;17.866;2023-04-02T14:26:16;102963.97;;;4.86;42.49
19795;BME280;10057;59.402;17.866;2023-04-02T14:31:36;102966.44;;;4.79;42.81
19795;BME280;10057;59.402;17.866;2023-04-02T14:37:19;102971.00;;;4.87;43.00
19795;BME280;10057;59.402;17.866;2023-04-02T14:42:39;102985.31;;;5.00;43.42
19795;BME280;10057;59.402;17.866;2023-04-02T14:45:18;102980.94;;;5.01;43.47
19795;BME280;10057;59.402;17.866;2023-04-02T14:47:58;102993.94;;;4.94;43.34
19795;BME280;10057;59.402;17.866;2023-04-02T14:50:39;102991.31;;;4.94;43.32
19795;BME280;10057;59.402;17.866;2023-04-02T14:53:13;102994.97;;;5.01;43.58
19795;BME280;10057;59.402;17.866;2023-04-02T14:55:45;102997.69;;;5.04;43.54
19795;BME280;10057;59.402;17.866;2023-04-02T14:58:37;102991.38;;;4.96;43.58
19795;BME280;10057;59.402;17.866;2023-04-02T15:01:15;103007.84;;;4.89;43.70
19795;BME280;10057;59.402;17.866;2023-04-02T15:06:22;102999.66;;;4.75;43.91
19795;BME280;10057;59.402;17.866;2023-04-02T15:09:15;103001.31;;;4.71;43.73
19795;BME280;10057;59.402;17.866;2023-04-02T15:11:52;103006.53;;;4.68;43.78
19795;BME280;10057;59.402;17.866;2023-04-02T15:14:26;103006.31;;;4.59;43.77
19795;BME280;10057;59.402;17.866;2023-04-02T15:16:54;103018.53;;;4.57;43.96
19795;BME280;10057;59.402;17.866;2023-04-02T15:19:20;103021.31;;;4.65;43.59
19795;BME280;10057;59.402;17.866;2023-04-02T15:25:04;103019.81;;;4.74;44.18
19795;BME280;10057;59.402;17.866;2023-04-02T15:27:59;103019.88;;;4.78;43.85
19795;BME280;10057;59.402;17.866;2023-04-02T15:30:36;103017.25;;;4.78;43.59
19795;BME280;10057;59.402;17.866;2023-04-02T15:38:55;103032.38;;;4.88;43.78
19795;BME280;10057;59.402;17.866;2023-04-02T15:41:25;103038.59;;;4.91;43.60
19795;BME280;10057;59.402;17.866;2023-04-02T15:44:13;103038.59;;;4.91;43.76
19795;BME280;10057;59.402;17.866;2023-04-02T15:52:25;103050.31;;;4.68;44.19
19795;BME280;10057;59.402;17.866;2023-04-02T15:57:55;103043.69;;;4.47;44.11
19795;BME280;10057;59.402;17.866;2023-04-02T16:00:31;103059.38;;;4.44;44.17
19795;BME280;10057;59.402;17.866;2023-04-02T16:03:49;103058.44;;;4.41;44.26
19795;BME280;10057;59.402;17.866;2023-04-02T16:06:27;103052.28;;;4.40;44.19
19795;BME280;10057;59.402;17.866;2023-04-02T16:11:39;103075.66;;;4.28;44.00
19795;BME280;10057;59.402;17.866;2023-04-02T16:14:29;103075.38;;;4.17;43.94
19795;BME280;10057;59.402;17.866;2023-04-02T16:17:04;103071.47;;;4.03;43.90
19795;BME280;10057;59.402;17.866;2023-04-02T16:20:25;103076.50;;;3.94;44.14
19795;BME280;10057;59.402;17.866;2023-04-02T16:23:18;103090.25;;;3.85;44.08